createdAt,value
2019-02-06T00:00:58.764Z,47.47
2019-02-06T00:03:27.053Z,46.20
2019-02-06T00:05:55.337Z,48.07
2019-02-06T00:08:23.738Z,46.90
2019-02-06T00:10:52.035Z,44.67
2019-02-06T00:13:20.422Z,47.73
2019-02-06T00:15:49.173Z,46.53
2019-02-06T00:18:17.538Z,46.50
2019-02-06T00:20:45.969Z,47.10
2019-02-06T00:23:14.312Z,46.07
2019-02-06T00:25:42.601Z,44.97
2019-02-06T00:28:10.886Z,45.70
2019-02-06T00:30:39.262Z,45.80
2019-02-06T00:33:08.084Z,43.13
2019-02-06T00:35:38.904Z,44.20
2019-02-06T00:38:07.210Z,44.00
2019-02-06T00:40:35.503Z,41.87
2019-02-06T00:43:03.855Z,43.27
2019-02-06T00:45:32.143Z,43.63
2019-02-06T00:48:00.812Z,44.23
2019-02-06T00:50:29.131Z,43.70
2019-02-06T00:52:57.418Z,40.77
2019-02-06T00:55:25.716Z,44.13
2019-02-06T00:57:54.139Z,42.60
2019-02-06T01:00:24.022Z,42.07
2019-02-06T01:02:53.058Z,43.03
2019-02-06T01:05:21.636Z,41.73
2019-02-06T01:07:49.983Z,40.73
2019-02-06T01:10:21.879Z,41.47
2019-02-06T01:12:56.028Z,38.67
2019-02-06T01:15:37.146Z,42.73
2019-02-06T01:18:05.553Z,39.07
2019-02-06T01:20:37.404Z,37.47
2019-02-06T01:23:09.963Z,40.53
2019-02-06T01:25:37.708Z,40.83
2019-02-06T01:28:12.555Z,41.07
2019-02-06T01:30:47.837Z,41.57
2019-02-06T01:33:16.890Z,40.87
2019-02-06T01:35:53.256Z,39.80
2019-02-06T01:38:21.912Z,38.00
2019-02-06T01:41:05.138Z,38.83
2019-02-06T01:43:33.136Z,38.30
2019-02-06T01:46:03.128Z,40.33
2019-02-06T01:48:47.891Z,37.90
2019-02-06T01:51:42.131Z,37.40
2019-02-06T01:54:21.206Z,38.53
2019-02-06T01:56:54.141Z,39.00
2019-02-06T01:59:24.393Z,39.60
2019-02-06T02:01:56.414Z,38.53
2019-02-06T02:04:28.414Z,38.07
2019-02-06T02:07:05.913Z,37.87
2019-02-06T02:09:42.330Z,37.70
2019-02-06T02:12:19.789Z,37.33
2019-02-06T02:14:48.161Z,36.93
2019-02-06T02:17:19.555Z,38.90
2019-02-06T02:19:48.088Z,35.33
2019-02-06T02:22:19.281Z,38.00
2019-02-06T02:24:48.161Z,39.67
2019-02-06T02:27:16.749Z,38.83
2019-02-06T02:29:45.258Z,38.37
2019-02-06T02:32:13.766Z,39.90
2019-02-06T02:34:42.266Z,38.93
2019-02-06T02:37:13.908Z,39.17
2019-02-06T02:39:42.804Z,36.00
2019-02-06T02:42:11.419Z,38.00
2019-02-06T02:44:39.915Z,36.63
2019-02-06T02:47:08.440Z,34.57
2019-02-06T02:49:36.907Z,34.40
2019-02-06T02:52:05.476Z,34.90
2019-02-06T02:54:34.112Z,35.87
2019-02-06T02:57:04.181Z,34.93
2019-02-06T02:59:32.733Z,34.23
2019-02-06T03:02:05.949Z,35.33
2019-02-06T03:04:37.110Z,35.93
2019-02-06T03:07:10.342Z,33.63
2019-02-06T03:09:39.030Z,35.47
2019-02-06T03:12:16.948Z,33.97
2019-02-06T03:14:45.545Z,32.63
2019-02-06T03:17:13.881Z,34.23
2019-02-06T03:19:42.283Z,32.53
2019-02-06T03:22:13.682Z,35.67
2019-02-06T03:24:42.187Z,33.67
2019-02-06T03:27:12.223Z,32.50
2019-02-06T03:29:40.607Z,32.67
2019-02-06T03:32:09.241Z,33.53
2019-02-06T03:34:40.437Z,33.37
2019-02-06T03:37:08.890Z,37.53
2019-02-06T03:39:37.395Z,35.07
2019-02-06T03:42:07.307Z,37.90
2019-02-06T03:44:42.870Z,35.70
2019-02-06T03:47:12.951Z,35.00
2019-02-06T03:49:42.791Z,35.17
2019-02-06T03:52:11.446Z,35.50
2019-02-06T03:54:39.879Z,36.07
2019-02-06T03:57:08.418Z,35.80
2019-02-06T03:59:36.951Z,33.73
2019-02-06T04:02:05.244Z,38.33
2019-02-06T04:04:33.585Z,36.60
2019-02-06T04:07:02.570Z,36.07
2019-02-06T04:09:31.342Z,37.50
2019-02-06T04:11:59.694Z,37.27
2019-02-06T04:14:28.183Z,35.20
2019-02-06T04:17:05.946Z,36.40
2019-02-06T04:19:36.931Z,38.23
2019-02-06T04:22:12.253Z,36.27
2019-02-06T04:25:01.917Z,36.53
2019-02-06T04:30:10.028Z,35.83
2019-02-06T04:32:40.672Z,34.50
2019-02-06T04:35:12.949Z,32.63
2019-02-06T04:38:02.494Z,32.67
2019-02-06T04:40:30.216Z,31.60
2019-02-06T04:43:09.356Z,33.47
2019-02-06T04:45:34.040Z,33.40
2019-02-06T04:48:07.122Z,35.33
2019-02-06T04:51:07.054Z,35.20
2019-02-06T04:53:43.309Z,34.20
2019-02-06T04:56:31.020Z,36.13
2019-02-06T04:59:01.404Z,33.30
2019-02-06T05:01:30.062Z,34.53
2019-02-06T05:04:10.635Z,36.30
2019-02-06T05:06:40.685Z,32.43
2019-02-06T05:09:14.847Z,34.93
2019-02-06T05:11:49.922Z,33.50
2019-02-06T05:14:31.736Z,31.37
2019-02-06T05:17:00.567Z,31.27
2019-02-06T05:19:45.164Z,31.10
2019-02-06T05:22:17.629Z,33.67
2019-02-06T05:24:50.550Z,30.13
2019-02-06T05:27:33.737Z,29.63
2019-02-06T05:30:13.010Z,29.93
2019-02-06T05:35:49.796Z,28.53
2019-02-06T05:39:18.615Z,30.47
2019-02-06T05:41:04.250Z,30.10
2019-02-06T05:43:46.399Z,26.97
2019-02-06T05:46:24.013Z,28.97
2019-02-06T05:48:56.357Z,29.03
2019-02-06T05:51:30.495Z,30.30
2019-02-06T05:54:02.677Z,30.13
2019-02-06T05:56:45.331Z,31.07
2019-02-06T05:59:35.965Z,29.77
2019-02-06T06:02:20.450Z,30.20
2019-02-06T06:04:50.603Z,28.03
2019-02-06T06:07:19.456Z,30.13
2019-02-06T06:09:50.777Z,29.53
2019-02-06T06:12:21.004Z,30.40
2019-02-06T06:14:49.336Z,30.90
2019-02-06T06:17:17.795Z,30.83
2019-02-06T06:19:46.530Z,29.83
2019-02-06T06:22:15.052Z,26.70
2019-02-06T06:24:43.328Z,28.47
2019-02-06T06:27:13.375Z,27.90
2019-02-06T06:29:41.829Z,28.40
2019-02-06T06:32:10.460Z,28.50
2019-02-06T06:34:42.419Z,24.73
2019-02-06T06:37:16.200Z,24.37
2019-02-06T06:39:44.385Z,24.87
2019-02-06T06:42:12.852Z,22.50
2019-02-06T06:44:41.314Z,24.63
2019-02-06T06:47:10.057Z,26.23
2019-02-06T06:49:38.805Z,26.83
2019-02-06T06:52:10.050Z,26.00
2019-02-06T06:54:38.467Z,25.97
2019-02-06T06:57:06.824Z,25.50
2019-02-06T06:59:36.915Z,26.83
2019-02-06T07:02:09.898Z,27.23
2019-02-06T07:04:44.879Z,27.43
2019-02-06T07:07:16.169Z,25.03
2019-02-06T07:09:46.933Z,27.10
2019-02-06T07:12:17.039Z,27.43
2019-02-06T07:14:47.403Z,25.63
2019-02-06T07:17:20.021Z,25.40
2019-02-06T07:19:48.508Z,25.90
2019-02-06T07:22:17.081Z,24.47
2019-02-06T07:24:47.087Z,24.13
2019-02-06T07:27:15.436Z,26.27
2019-02-06T07:29:43.764Z,25.20
2019-02-06T07:32:12.476Z,26.53
2019-02-06T07:34:40.758Z,25.73
2019-02-06T07:37:09.110Z,26.13
2019-02-06T07:39:37.414Z,26.00
2019-02-06T07:42:16.385Z,25.50
2019-02-06T07:44:47.465Z,25.03
2019-02-06T07:47:15.901Z,25.13
2019-02-06T07:49:44.262Z,25.20
2019-02-06T07:52:12.522Z,26.13
2019-02-06T07:54:40.940Z,25.17
2019-02-06T07:57:09.200Z,21.30
2019-02-06T07:59:39.144Z,25.30
2019-02-06T08:02:07.794Z,25.10
2019-02-06T08:04:36.227Z,23.63
2019-02-06T08:07:04.564Z,22.87
2019-02-06T08:09:32.934Z,23.17
2019-02-06T08:12:01.325Z,22.50
2019-02-06T08:14:31.356Z,21.97
2019-02-06T08:16:59.653Z,20.30
2019-02-06T08:19:28.376Z,21.27
2019-02-06T08:21:59.733Z,21.07
2019-02-06T08:24:28.127Z,20.77
2019-02-06T08:26:56.495Z,23.67
2019-02-06T08:29:24.751Z,21.60
2019-02-06T08:31:53.025Z,22.13
2019-02-06T08:34:21.586Z,21.37
2019-02-06T08:36:49.881Z,20.10
2019-02-06T08:39:18.161Z,23.10
2019-02-06T08:41:46.436Z,24.10
2019-02-06T08:44:14.707Z,23.53
2019-02-06T08:46:42.989Z,23.60
2019-02-06T08:49:11.256Z,23.97
2019-02-06T08:51:39.828Z,26.20
2019-02-06T08:54:08.094Z,24.70
2019-02-06T08:56:36.357Z,23.97
2019-02-06T08:59:04.814Z,25.37
2019-02-06T09:01:33.127Z,25.53
2019-02-06T09:04:01.464Z,23.30
2019-02-06T09:06:29.735Z,25.17
2019-02-06T09:08:59.993Z,25.17
2019-02-06T09:11:28.086Z,25.60
2019-02-06T09:13:56.375Z,25.77
2019-02-06T09:16:24.642Z,23.80
2019-02-06T09:18:52.915Z,25.63
2019-02-06T09:21:21.178Z,24.53
2019-02-06T09:23:49.820Z,27.07
2019-02-06T09:26:18.116Z,26.37
2019-02-06T09:28:46.383Z,28.03
2019-02-06T09:31:14.652Z,25.63
2019-02-06T09:33:42.959Z,26.23
2019-02-06T09:36:11.220Z,27.33
2019-02-06T09:38:39.486Z,28.70
2019-02-06T09:41:08.030Z,27.80
2019-02-06T09:43:36.298Z,27.40
2019-02-06T09:46:04.634Z,28.83
2019-02-06T09:48:32.902Z,26.67
2019-02-06T09:51:01.236Z,26.00
2019-02-06T09:53:29.521Z,27.07
2019-02-06T09:55:57.790Z,26.73
2019-02-06T09:58:26.326Z,26.87
2019-02-06T10:00:54.598Z,25.67
2019-02-06T10:03:22.888Z,27.57
2019-02-06T10:05:51.225Z,25.83
2019-02-06T10:08:19.573Z,23.27
2019-02-06T10:10:47.902Z,25.93
2019-02-06T10:13:16.694Z,25.57
2019-02-06T10:15:45.204Z,23.53
2019-02-06T10:18:13.467Z,25.80
2019-02-06T10:20:47.958Z,24.27
2019-02-06T10:23:17.892Z,24.13
2019-02-06T10:25:46.162Z,25.83
2019-02-06T10:28:16.470Z,27.53
2019-02-06T10:30:46.861Z,23.63
2019-02-06T10:33:15.130Z,25.23
2019-02-06T10:35:43.425Z,23.30
2019-02-06T10:38:11.782Z,24.27
2019-02-06T10:40:40.066Z,23.87
2019-02-06T10:43:08.355Z,25.20
2019-02-06T10:45:37.137Z,24.90
2019-02-06T10:48:08.629Z,26.97
2019-02-06T10:50:42.073Z,26.87
2019-02-06T10:53:10.499Z,26.47
2019-02-06T10:55:38.954Z,26.97
2019-02-06T10:58:07.329Z,29.97
2019-02-06T11:00:42.133Z,28.93
2019-02-06T11:03:10.380Z,25.83
2019-02-06T11:05:38.659Z,28.60
2019-02-06T11:08:06.928Z,29.13
2019-02-06T11:10:38.915Z,27.73
2019-02-06T11:13:07.807Z,27.57
2019-02-06T11:15:36.614Z,29.40
2019-02-06T11:18:05.651Z,28.87
2019-02-06T11:20:37.244Z,28.07
2019-02-06T11:23:06.460Z,28.03
2019-02-06T11:25:34.926Z,28.53
2019-02-06T11:28:03.366Z,28.13
2019-02-06T11:30:35.137Z,26.73
2019-02-06T11:33:03.628Z,27.63
2019-02-06T11:35:32.090Z,27.53
2019-02-06T11:38:03.493Z,28.43
2019-02-06T11:40:34.716Z,26.27
2019-02-06T11:43:04.922Z,30.87
2019-02-06T11:45:36.259Z,28.80
2019-02-06T11:48:17.936Z,28.93
2019-02-06T11:50:43.869Z,28.00
2019-02-06T11:53:14.883Z,27.73
2019-02-06T11:55:54.210Z,27.20
2019-02-06T11:58:26.135Z,26.67
2019-02-06T12:01:26.205Z,28.13
2019-02-06T12:07:07.577Z,25.60
2019-02-06T12:09:30.704Z,26.07
2019-02-06T12:11:58.875Z,25.43
2019-02-06T12:14:27.466Z,25.07
2019-02-06T12:16:55.886Z,27.97
2019-02-06T12:19:24.369Z,26.47
2019-02-06T12:21:52.631Z,26.97
2019-02-06T12:24:20.885Z,26.77
2019-02-06T12:26:49.173Z,27.57
2019-02-06T12:29:17.693Z,25.83
2019-02-06T12:31:45.945Z,28.13
2019-02-06T12:34:14.297Z,28.07
2019-02-06T12:36:42.647Z,26.60
2019-02-06T12:39:10.963Z,26.63
2019-02-06T12:41:39.363Z,28.03
2019-02-06T12:44:07.624Z,27.30
2019-02-06T12:46:35.880Z,27.67
2019-02-06T12:49:04.619Z,28.23
2019-02-06T12:51:35.891Z,27.13
2019-02-06T12:54:04.450Z,27.53
2019-02-06T12:56:35.886Z,29.03
2019-02-06T12:59:07.312Z,27.83
2019-02-06T13:01:35.809Z,28.07
2019-02-06T13:04:15.295Z,27.93
2019-02-06T13:06:46.813Z,28.27
2019-02-06T13:09:15.592Z,30.40
2019-02-06T13:11:44.222Z,29.13
2019-02-06T13:14:12.785Z,28.40
2019-02-06T13:16:41.758Z,29.57
2019-02-06T13:19:10.187Z,31.70
2019-02-06T13:21:42.027Z,29.97
2019-02-06T13:24:10.371Z,28.40
2019-02-06T13:26:38.891Z,28.80
2019-02-06T13:29:07.259Z,28.83
2019-02-06T13:31:38.700Z,28.60
2019-02-06T13:34:07.179Z,28.80
2019-02-06T13:36:35.511Z,29.57
2019-02-06T13:39:05.489Z,28.40
2019-02-06T13:41:33.931Z,29.63
2019-02-06T13:44:02.379Z,27.60
2019-02-06T13:46:30.795Z,27.57
2019-02-06T13:48:59.264Z,28.30
2019-02-06T13:51:27.614Z,28.50
2019-02-06T13:53:56.017Z,27.07
2019-02-06T13:56:24.474Z,28.37
2019-02-06T13:58:58.124Z,28.67
2019-02-06T14:01:26.549Z,25.93
2019-02-06T14:03:54.932Z,27.37
2019-02-06T14:06:23.446Z,30.03
2019-02-06T14:08:51.915Z,27.33
2019-02-06T14:11:20.270Z,26.93
2019-02-06T14:13:48.635Z,29.97
2019-02-06T14:16:17.147Z,29.00
2019-02-06T14:18:48.470Z,28.73
2019-02-06T14:21:16.836Z,28.53
2019-02-06T14:23:57.073Z,28.63
2019-02-06T14:26:31.416Z,28.10
2019-02-06T14:29:08.531Z,28.47
2019-02-06T14:32:01.178Z,28.97
2019-02-06T14:34:44.898Z,29.13
2019-02-06T14:37:16.481Z,27.43
2019-02-06T14:40:03.136Z,29.50
2019-02-06T14:42:45.090Z,29.47
2019-02-06T14:45:36.263Z,28.80
2019-02-06T14:48:22.764Z,26.97
2019-02-06T14:51:06.550Z,27.53
2019-02-06T14:53:43.814Z,27.20
2019-02-06T14:56:17.904Z,29.13
2019-02-06T14:58:55.126Z,28.20
2019-02-06T15:01:42.971Z,28.57
2019-02-06T15:04:29.655Z,29.77
2019-02-06T15:07:04.959Z,29.10
2019-02-06T15:10:03.351Z,28.67
2019-02-06T15:12:46.902Z,30.90
2019-02-06T15:15:35.107Z,30.13
2019-02-06T15:18:12.693Z,28.70
2019-02-06T15:21:05.585Z,28.73
2019-02-06T15:23:40.128Z,28.90
2019-02-06T15:26:14.581Z,29.13
2019-02-06T15:29:05.899Z,29.77
2019-02-06T15:31:51.833Z,29.90
2019-02-06T15:34:28.979Z,31.43
2019-02-06T15:37:15.169Z,31.70
2019-02-06T15:40:21.570Z,33.97
2019-02-06T15:43:05.313Z,31.97
2019-02-06T15:45:36.825Z,31.13
2019-02-06T15:48:11.219Z,33.77
2019-02-06T15:51:08.215Z,36.57
2019-02-06T15:53:51.489Z,35.80
2019-02-06T15:56:31.803Z,36.20
2019-02-06T15:59:21.500Z,33.33
2019-02-06T16:01:58.936Z,34.97
2019-02-06T16:05:07.077Z,36.03
2019-02-06T16:07:53.696Z,34.53
2019-02-06T16:10:52.458Z,34.37
2019-02-06T16:13:29.706Z,35.43
2019-02-06T16:16:25.324Z,35.60
2019-02-06T16:18:59.526Z,33.93
2019-02-06T16:21:53.297Z,35.03
2019-02-06T16:24:19.671Z,32.27
2019-02-06T16:27:03.237Z,35.20
2019-02-06T16:30:00.160Z,35.17
2019-02-06T16:32:42.907Z,37.20
2019-02-06T16:35:17.512Z,34.90
2019-02-06T16:38:00.993Z,37.53
2019-02-06T16:40:44.693Z,41.07
2019-02-06T16:43:24.553Z,39.50
2019-02-06T16:46:07.879Z,37.33
2019-02-06T16:48:54.308Z,37.83
2019-02-06T16:51:42.770Z,37.40
2019-02-06T16:54:30.800Z,37.00
2019-02-06T16:57:05.113Z,35.97
2019-02-06T16:59:54.964Z,37.13
2019-02-06T17:02:41.620Z,37.63
2019-02-06T17:05:34.178Z,37.37
2019-02-06T17:08:21.857Z,38.57
2019-02-06T17:11:02.771Z,38.63
2019-02-06T17:13:49.095Z,39.03
2019-02-06T17:16:44.858Z,37.00
2019-02-06T17:19:28.449Z,42.63
2019-02-06T17:22:00.028Z,38.47
2019-02-06T17:25:03.599Z,36.23
2019-02-06T17:27:53.209Z,35.77
2019-02-06T17:30:24.812Z,38.80
2019-02-06T17:33:12.739Z,38.47
2019-02-06T17:35:44.307Z,37.97
2019-02-06T17:38:37.511Z,36.40
2019-02-06T17:41:20.707Z,37.07
2019-02-06T17:44:01.322Z,36.27
2019-02-06T17:46:32.864Z,37.50
2019-02-06T17:49:16.372Z,37.07
2019-02-06T17:51:50.858Z,36.23
2019-02-06T17:54:49.750Z,38.70
2019-02-06T17:57:18.020Z,35.87
2019-02-06T17:59:46.498Z,35.67
2019-02-06T18:02:14.780Z,36.77
2019-02-06T18:04:43.150Z,33.83
2019-02-06T18:07:11.588Z,38.07
2019-02-06T18:09:39.902Z,35.53
2019-02-06T18:12:08.185Z,31.73
2019-02-06T18:14:36.464Z,32.67
2019-02-06T18:17:04.656Z,33.57
2019-02-06T18:19:36.569Z,33.37
2019-02-06T18:22:05.428Z,35.63
2019-02-06T18:24:33.742Z,34.37
2019-02-06T18:27:02.101Z,34.43
2019-02-06T18:29:30.531Z,33.60
2019-02-06T18:31:58.918Z,33.30
2019-02-06T18:34:27.212Z,35.47
2019-02-06T18:36:55.817Z,34.33
2019-02-06T18:39:24.213Z,32.67
2019-02-06T18:41:52.571Z,33.80
2019-02-06T18:44:20.931Z,32.13
2019-02-06T18:46:49.281Z,35.07
2019-02-06T18:49:17.606Z,34.33
2019-02-06T18:51:45.877Z,34.37
2019-02-06T18:54:14.139Z,32.87
2019-02-06T18:56:42.906Z,34.13
2019-02-06T18:59:11.179Z,32.50
2019-02-06T19:01:39.442Z,33.73
2019-02-06T19:04:07.885Z,33.10
2019-02-06T19:06:36.261Z,33.47
2019-02-06T19:09:07.758Z,33.40
2019-02-06T19:11:36.035Z,31.47
2019-02-06T19:14:04.322Z,33.77
2019-02-06T19:16:32.607Z,34.60
2019-02-06T19:19:00.958Z,34.27
2019-02-06T19:21:29.221Z,35.00
2019-02-06T19:23:57.488Z,36.17
2019-02-06T19:26:26.054Z,35.00
2019-02-06T19:28:54.418Z,34.67
2019-02-06T19:31:22.698Z,34.13
2019-02-06T19:33:50.967Z,35.03
2019-02-06T19:36:19.301Z,33.73
2019-02-06T19:38:47.579Z,34.43
2019-02-06T19:41:15.864Z,33.77
2019-02-06T19:43:44.119Z,35.13
2019-02-06T19:46:12.436Z,37.00
2019-02-06T19:48:40.706Z,35.80
2019-02-06T19:51:09.009Z,36.33
2019-02-06T19:53:37.284Z,35.90
2019-02-06T19:56:13.782Z,36.37
2019-02-06T19:58:43.051Z,36.47
2019-02-06T20:01:11.314Z,38.93
2019-02-06T20:03:39.582Z,37.73
2019-02-06T20:06:07.878Z,38.53
2019-02-06T20:08:36.199Z,36.53
2019-02-06T20:11:04.495Z,40.40
2019-02-06T20:13:33.273Z,39.40
2019-02-06T20:16:03.246Z,40.93
2019-02-06T20:18:31.526Z,38.60
2019-02-06T20:20:59.935Z,39.80
2019-02-06T20:23:28.290Z,39.53
2019-02-06T20:25:56.652Z,38.83
2019-02-06T20:28:25.067Z,38.67
2019-02-06T20:30:56.688Z,41.37
2019-02-06T20:33:25.059Z,39.33
2019-02-06T20:35:53.377Z,38.87
2019-02-06T20:38:21.679Z,40.77
2019-02-06T20:40:49.937Z,43.00
2019-02-06T20:43:22.288Z,41.10
2019-02-06T20:45:48.284Z,42.00
2019-02-06T20:48:16.641Z,41.97
2019-02-06T20:50:46.678Z,40.40
2019-02-06T20:53:14.952Z,40.77
2019-02-06T20:55:43.257Z,38.90
2019-02-06T20:58:11.561Z,42.43
2019-02-06T21:00:44.148Z,42.80
2019-02-06T21:03:15.602Z,43.53
2019-02-06T21:05:48.899Z,42.03
2019-02-06T21:08:17.227Z,44.63
2019-02-06T21:10:45.544Z,42.43
2019-02-06T21:13:13.849Z,43.63
2019-02-06T21:15:42.224Z,43.80
2019-02-06T21:18:10.486Z,42.50
2019-02-06T21:20:39.088Z,43.77
2019-02-06T21:23:07.390Z,44.17
2019-02-06T21:25:35.681Z,42.43
2019-02-06T21:28:03.951Z,41.00
2019-02-06T21:30:40.395Z,41.20
2019-02-06T21:33:08.774Z,41.47
2019-02-06T21:35:37.432Z,41.90
2019-02-06T21:38:05.698Z,44.43
2019-02-06T21:40:37.754Z,43.30
2019-02-06T21:43:06.900Z,44.90
2019-02-06T21:45:35.288Z,43.40
2019-02-06T21:48:03.746Z,43.47
2019-02-06T21:50:32.073Z,42.77
2019-02-06T21:53:00.362Z,43.53
2019-02-06T21:55:28.665Z,43.73
2019-02-06T21:57:57.005Z,44.47
2019-02-06T22:00:30.605Z,46.03
2019-02-06T22:02:58.979Z,43.97
2019-02-06T22:05:27.343Z,44.77
2019-02-06T22:07:55.645Z,45.67
2019-02-06T22:10:24.007Z,44.37
2019-02-06T22:12:52.404Z,44.03
2019-02-06T22:15:28.945Z,46.83
2019-02-06T22:17:59.285Z,46.13
2019-02-06T22:20:27.954Z,45.37
2019-02-06T22:22:56.252Z,44.90
2019-02-06T22:25:24.517Z,47.03
2019-02-06T22:27:52.834Z,46.13
2019-02-06T22:30:23.711Z,43.53
2019-02-06T22:32:51.993Z,46.80
2019-02-06T22:35:20.682Z,46.67
2019-02-06T22:37:49.007Z,49.90
2019-02-06T22:40:21.775Z,48.03
2019-02-06T22:42:50.093Z,48.60
2019-02-06T22:45:23.347Z,46.37
2019-02-06T22:47:51.617Z,47.03
2019-02-06T22:50:22.220Z,47.07
2019-02-06T22:52:50.570Z,47.47
2019-02-06T22:55:18.854Z,48.30
2019-02-06T22:57:47.212Z,49.70
2019-02-06T23:00:29.363Z,48.07
2019-02-06T23:02:58.066Z,45.13
2019-02-06T23:05:26.384Z,46.20
2019-02-06T23:07:54.663Z,45.50
2019-02-06T23:10:22.947Z,46.47
2019-02-06T23:12:51.249Z,45.83
2019-02-06T23:15:19.511Z,48.03
2019-02-06T23:17:47.771Z,46.37
2019-02-06T23:20:16.060Z,46.63
2019-02-06T23:22:44.341Z,47.27
2019-02-06T23:25:12.629Z,45.87
2019-02-06T23:27:40.996Z,45.00
2019-02-06T23:30:12.793Z,43.73
2019-02-06T23:32:41.203Z,45.60
2019-02-06T23:35:09.506Z,47.47
2019-02-06T23:37:37.779Z,48.70
2019-02-06T23:40:12.060Z,46.83
2019-02-06T23:42:40.340Z,49.33
2019-02-06T23:45:09.939Z,44.97
2019-02-06T23:47:38.709Z,47.53
2019-02-06T23:50:12.972Z,47.47
2019-02-06T23:52:41.269Z,48.40
2019-02-06T23:55:09.544Z,47.67
2019-02-06T23:57:37.824Z,46.03
